Time;durP1;ratioP1;P1;durP2;ratioP2;P2;SDS_P1;SDS_P2;PMS_P1;PMS_P2;Temp;Humidity;BMP_temperature;BMP_pressure;BME280_temperature;BME280_humidity;BME280_pressure;Samples;Min_cycle;Max_cycle;Signal;HPM_P1;HPM_P2
2022/05/07 00:02:09;;;;;;;4.00;3.33;;;11.30;99.90;;;;;;5024717;28;20581;-72
2022/05/07 00:04:36;;;;;;;3.50;3.20;;;11.30;99.90;;;;;;5016505;28;20445;-71
2022/05/07 00:07:03;;;;;;;5.90;3.77;;;11.30;99.90;;;;;;5034841;28;21215;-71
2022/05/07 00:09:32;;;;;;;6.47;3.97;;;11.30;99.90;;;;;;5013024;28;20501;-71
2022/05/07 00:11:59;;;;;;;6.80;3.83;;;11.20;99.90;;;;;;5019226;28;20482;-71
2022/05/07 00:14:26;;;;;;;5.80;3.50;;;11.20;99.90;;;;;;5016609;28;20481;-71
2022/05/07 00:19:36;;;;;;;6.63;3.67;;;11.10;99.90;;;;;;5015833;28;20440;-71
2022/05/07 00:22:04;;;;;;;10.13;3.90;;;11.00;99.90;;;;;;5025170;28;20542;-71
2022/05/07 00:24:32;;;;;;;4.20;3.33;;;11.00;99.90;;;;;;5019843;28;20825;-71
2022/05/07 00:26:59;;;;;;;5.83;3.53;;;11.00;99.90;;;;;;5014019;28;20473;-71
2022/05/07 00:29:25;;;;;;;9.00;3.37;;;11.00;99.90;;;;;;5024395;28;20446;-71
2022/05/07 00:31:52;;;;;;;7.93;3.90;;;11.00;99.90;;;;;;5016485;28;20524;-72
2022/05/07 00:34:21;;;;;;;6.23;3.83;;;11.00;99.90;;;;;;5018440;28;20908;-72
2022/05/07 00:36:47;;;;;;;7.67;4.03;;;10.90;99.90;;;;;;5030774;28;20454;-72
2022/05/07 00:39:14;;;;;;;6.93;3.70;;;10.90;99.90;;;;;;5016099;28;20507;-71
2022/05/07 00:41:42;;;;;;;7.83;4.50;;;10.90;99.90;;;;;;5017391;28;20535;-71
2022/05/07 00:44:08;;;;;;;9.03;4.87;;;10.90;99.90;;;;;;5024141;28;20979;-72
2022/05/07 00:46:35;;;;;;;7.27;4.20;;;10.90;99.90;;;;;;5024008;28;20986;-71
2022/05/07 00:49:02;;;;;;;5.70;3.93;;;10.90;99.90;;;;;;5017925;28;20508;-71
2022/05/07 00:51:33;;;;;;;9.10;4.60;;;10.90;99.90;;;;;;5021787;28;20465;-71
2022/05/07 00:54:01;;;;;;;8.70;5.30;;;10.90;99.90;;;;;;5019671;28;20478;-71
2022/05/07 00:56:28;;;;;;;4.17;3.77;;;10.80;99.90;;;;;;5025940;28;20504;-71
2022/05/07 00:58:56;;;;;;;7.83;4.40;;;10.70;99.90;;;;;;5018810;28;20462;-71
2022/05/07 01:01:23;;;;;;;6.00;4.30;;;10.70;99.90;;;;;;5016028;28;20492;-71
2022/05/07 01:03:50;;;;;;;4.37;3.97;;;10.60;99.90;;;;;;5015245;28;21013;-71
2022/05/07 01:06:17;;;;;;;6.37;4.80;;;10.60;99.90;;;;;;5026807;28;20449;-71
2022/05/07 01:08:46;;;;;;;6.00;4.67;;;10.50;99.90;;;;;;5022007;28;20454;-71
2022/05/07 01:11:14;;;;;;;6.60;5.00;;;10.50;99.90;;;;;;5019728;28;21001;-71
2022/05/07 01:13:42;;;;;;;5.37;4.77;;;10.50;99.90;;;;;;5020699;28;20504;-71
2022/05/07 01:16:11;;;;;;;8.67;5.47;;;10.50;99.90;;;;;;5023090;28;20457;-71
2022/05/07 01:18:39;;;;;;;8.97;4.60;;;10.50;99.90;;;;;;5013060;28;20470;-71
2022/05/07 01:21:09;;;;;;;6.73;4.87;;;10.50;99.90;;;;;;5021038;28;20531;-72
2022/05/07 01:23:37;;;;;;;5.37;4.00;;;10.50;99.90;;;;;;5020975;28;20485;-72
2022/05/07 01:26:03;;;;;;;4.73;4.30;;;10.50;99.90;;;;;;5029281;28;20457;-71
2022/05/07 01:28:30;;;;;;;5.10;4.60;;;10.50;99.90;;;;;;5023129;28;20449;-71
2022/05/07 01:30:57;;;;;;;4.47;3.50;;;10.50;99.90;;;;;;5016362;28;20524;-71
2022/05/07 01:33:24;;;;;;;5.77;3.90;;;10.50;99.90;;;;;;5019050;28;20453;-71
2022/05/07 01:35:50;;;;;;;7.33;3.80;;;10.50;99.90;;;;;;5016457;28;20508;-71
2022/05/07 01:38:18;;;;;;;4.40;4.00;;;10.50;99.90;;;;;;5024809;28;20958;-71
2022/05/07 01:40:45;;;;;;;4.10;3.70;;;10.40;99.90;;;;;;5022817;28;20528;-71
2022/05/07 01:43:12;;;;;;;5.80;4.20;;;10.40;99.90;;;;;;5021133;28;20485;-72
2022/05/07 01:45:38;;;;;;;8.83;4.80;;;10.30;99.90;;;;;;5025118;28;20461;-72
2022/05/07 01:48:11;;;;;;;8.10;5.70;;;10.30;99.90;;;;;;5029539;28;20519;-70
2022/05/07 01:50:39;;;;;;;10.40;5.50;;;10.20;99.90;;;;;;5015543;28;20498;-71
2022/05/07 01:53:07;;;;;;;6.00;5.40;;;10.10;99.90;;;;;;5019661;28;20477;-71
2022/05/07 01:55:35;;;;;;;7.47;5.60;;;10.10;99.90;;;;;;5021383;28;20450;-71
2022/05/07 01:58:03;;;;;;;5.13;4.63;;;10.00;99.90;;;;;;5021518;28;20513;-71
2022/05/07 02:00:30;;;;;;;6.97;4.50;;;10.00;99.90;;;;;;5027166;28;20515;-71
2022/05/07 02:02:57;;;;;;;5.37;4.60;;;9.90;99.90;;;;;;5016141;28;20492;-71
2022/05/07 02:05:26;;;;;;;5.10;4.47;;;9.90;99.90;;;;;;5022024;28;20454;-71
2022/05/07 02:07:52;;;;;;;6.27;5.23;;;9.80;99.90;;;;;;5024310;28;20992;-71
2022/05/07 02:10:19;;;;;;;6.60;4.10;;;9.80;99.90;;;;;;5030476;28;20470;-71
2022/05/07 02:12:48;;;;;;;4.60;4.13;;;9.80;99.90;;;;;;5020992;28;20939;-71
2022/05/07 02:15:14;;;;;;;9.70;4.50;;;9.70;99.90;;;;;;5016841;28;20524;-71
2022/05/07 02:17:41;;;;;;;10.60;4.40;;;9.70;99.90;;;;;;5026527;28;20504;-71
2022/05/07 02:20:09;;;;;;;6.37;3.70;;;9.70;99.90;;;;;;5019509;28;20484;-71
2022/05/07 02:22:36;;;;;;;5.83;4.30;;;9.70;99.90;;;;;;5021718;28;20883;-71
2022/05/07 02:25:03;;;;;;;10.00;5.00;;;9.70;99.90;;;;;;5030908;28;20452;-71
2022/05/07 02:27:30;;;;;;;8.03;4.03;;;9.70;99.90;;;;;;5029808;28;20454;-71
2022/05/07 02:30:00;;;;;;;6.50;4.00;;;9.70;99.90;;;;;;5015340;28;20454;-70
2022/05/07 02:32:26;;;;;;;4.00;3.60;;;9.60;99.90;;;;;;5021582;28;20519;-71
2022/05/07 02:34:53;;;;;;;4.70;3.60;;;9.60;99.90;;;;;;5013840;28;21015;-71
2022/05/07 02:37:20;;;;;;;7.53;4.17;;;9.60;99.90;;;;;;5019920;28;20507;-71
2022/05/07 02:39:48;;;;;;;6.30;3.57;;;9.60;99.90;;;;;;5028350;28;20453;-71
2022/05/07 02:45:01;;;;;;;3.80;3.47;;;9.60;99.90;;;;;;5029692;28;20445;-71
2022/05/07 02:47:28;;;;;;;6.90;2.97;;;9.50;99.90;;;;;;5029326;28;20454;-71
2022/05/07 02:49:55;;;;;;;5.27;3.87;;;9.50;99.90;;;;;;5018385;28;20459;-71
2022/05/07 02:52:22;;;;;;;4.07;3.67;;;9.50;99.90;;;;;;5021071;28;20555;-71
2022/05/07 02:54:48;;;;;;;4.70;3.63;;;9.50;99.90;;;;;;5014505;28;20457;-71
2022/05/07 02:57:15;;;;;;;5.10;3.50;;;9.40;99.90;;;;;;5015205;28;20462;-71
2022/05/07 02:59:42;;;;;;;5.17;3.70;;;9.40;99.90;;;;;;5035583;28;20562;-71
2022/05/07 03:02:10;;;;;;;7.67;3.77;;;9.30;99.90;;;;;;5031862;28;20485;-71
2022/05/07 03:04:37;;;;;;;4.30;4.00;;;9.30;99.90;;;;;;5021895;28;20447;-71
2022/05/07 03:07:04;;;;;;;5.83;3.90;;;9.30;99.90;;;;;;5021607;28;20829;-71
2022/05/07 03:09:30;;;;;;;5.73;3.80;;;9.20;99.90;;;;;;5020819;28;20935;-71
2022/05/07 03:11:57;;;;;;;4.47;3.90;;;9.30;99.90;;;;;;5018961;28;20478;-71
2022/05/07 03:14:25;;;;;;;5.70;3.50;;;9.20;99.90;;;;;;5021502;28;20519;-71
2022/05/07 03:16:51;;;;;;;8.90;4.20;;;9.20;99.90;;;;;;5014304;28;20874;-71
2022/05/07 03:19:20;;;;;;;6.53;3.90;;;9.20;99.90;;;;;;5014830;28;20455;-72
2022/05/07 03:21:47;;;;;;;5.77;3.80;;;9.20;99.90;;;;;;5018928;28;20474;-71
2022/05/07 03:24:13;;;;;;;5.13;4.13;;;9.10;99.90;;;;;;5020980;28;20453;-72
2022/05/07 03:26:40;;;;;;;4.90;4.27;;;9.10;99.90;;;;;;5017578;28;20877;-71
2022/05/07 03:29:07;;;;;;;6.90;4.20;;;9.10;99.90;;;;;;5014508;28;21017;-70
2022/05/07 03:31:34;;;;;;;7.40;4.37;;;9.10;99.90;;;;;;5014032;28;20820;-71
2022/05/07 03:34:01;;;;;;;7.83;4.43;;;9.10;99.90;;;;;;5012593;28;21163;-70
2022/05/07 03:36:29;;;;;;;8.43;4.50;;;9.00;99.90;;;;;;5027211;28;20533;-72
2022/05/07 03:38:55;;;;;;;8.07;4.30;;;9.00;99.90;;;;;;5023078;28;20520;-71
2022/05/07 03:41:22;;;;;;;8.10;4.90;;;9.00;99.90;;;;;;5021291;28;21054;-71
2022/05/07 03:43:49;;;;;;;6.37;4.63;;;8.90;99.90;;;;;;5027711;28;20821;-71
2022/05/07 03:46:16;;;;;;;5.93;5.33;;;8.90;99.90;;;;;;5020427;28;20508;-71
2022/05/07 03:48:42;;;;;;;7.67;5.20;;;8.90;99.90;;;;;;5022406;28;20454;-71
2022/05/07 03:51:09;;;;;;;8.53;5.37;;;8.90;99.90;;;;;;5025142;28;20472;-71
2022/05/07 03:53:37;;;;;;;17.40;5.63;;;8.80;99.90;;;;;;5015955;28;20454;-72
2022/05/07 03:56:05;;;;;;;11.90;5.50;;;8.80;99.90;;;;;;5021966;28;20457;-71
2022/05/07 03:58:32;;;;;;;5.67;5.10;;;8.80;99.90;;;;;;5022291;28;20464;-71
2022/05/07 04:00:59;;;;;;;7.60;5.60;;;8.80;99.90;;;;;;5013746;28;20524;-71
2022/05/07 04:03:27;;;;;;;6.33;4.97;;;8.80;99.90;;;;;;5019299;28;20488;-71
2022/05/07 04:05:54;;;;;;;7.63;4.93;;;8.80;99.90;;;;;;5029967;28;20454;-71
2022/05/07 04:08:23;;;;;;;7.37;5.20;;;8.80;99.90;;;;;;5019879;28;20462;-71
2022/05/07 04:10:51;;;;;;;9.60;5.77;;;8.80;99.90;;;;;;5026977;28;20896;-71
2022/05/07 04:13:18;;;;;;;9.87;5.73;;;8.80;99.90;;;;;;5020348;28;20532;-71
2022/05/07 04:15:45;;;;;;;9.10;6.10;;;8.80;99.90;;;;;;5013623;28;20450;-71
2022/05/07 04:18:12;;;;;;;8.60;5.63;;;8.90;99.90;;;;;;5025228;28;20854;-71
2022/05/07 04:20:40;;;;;;;8.07;5.63;;;8.80;99.90;;;;;;5019205;28;21080;-71
2022/05/07 04:23:07;;;;;;;9.50;5.70;;;8.80;99.90;;;;;;5016544;28;20548;-71
2022/05/07 04:25:33;;;;;;;6.07;5.47;;;8.90;99.90;;;;;;5021757;28;20997;-71
2022/05/07 04:28:01;;;;;;;6.93;5.07;;;8.90;99.90;;;;;;5022128;28;21019;-71
2022/05/07 04:30:28;;;;;;;9.60;5.97;;;8.90;99.90;;;;;;5014561;28;20469;-71
2022/05/07 04:32:55;;;;;;;8.23;5.90;;;8.90;99.90;;;;;;5024827;28;20512;-71
2022/05/07 04:35:21;;;;;;;7.40;5.27;;;9.00;99.90;;;;;;5019375;28;20453;-71
2022/05/07 04:37:48;;;;;;;9.73;5.67;;;9.00;99.90;;;;;;5013454;28;20458;-71
2022/05/07 04:40:15;;;;;;;7.13;5.63;;;9.10;99.90;;;;;;5024816;28;20453;-71
2022/05/07 04:42:42;;;;;;;9.53;5.67;;;9.10;99.90;;;;;;5026008;28;20482;-71
2022/05/07 04:45:11;;;;;;;8.47;5.47;;;9.20;99.90;;;;;;5024510;28;20540;-71
2022/05/07 04:47:38;;;;;;;6.10;5.50;;;9.20;99.90;;;;;;5028676;28;20452;-71
2022/05/07 04:50:05;;;;;;;4.93;4.53;;;9.30;99.90;;;;;;5031401;28;20440;-68
2022/05/07 04:52:32;;;;;;;6.70;4.80;;;9.40;99.90;;;;;;5014182;28;20453;-70
2022/05/07 04:55:02;;;;;;;5.10;4.60;;;9.50;99.90;;;;;;5014829;28;20453;-70
2022/05/07 04:57:28;;;;;;;4.90;4.40;;;9.60;99.90;;;;;;5014861;28;20465;-70
2022/05/07 04:59:55;;;;;;;8.57;5.00;;;9.70;99.90;;;;;;5027737;28;20449;-70
2022/05/07 05:02:23;;;;;;;5.50;5.00;;;9.80;99.90;;;;;;5021608;28;20562;-70
2022/05/07 05:04:50;;;;;;;5.53;4.60;;;9.90;99.90;;;;;;5020568;28;20461;-70
2022/05/07 05:07:16;;;;;;;7.37;5.27;;;10.00;99.90;;;;;;5031848;28;20461;-70
2022/05/07 05:09:43;;;;;;;6.13;4.73;;;10.10;99.90;;;;;;5019362;28;20722;-70
2022/05/07 05:12:10;;;;;;;14.63;5.47;;;10.20;99.90;;;;;;5026845;28;20532;-70
2022/05/07 05:17:22;;;;;;;5.17;4.67;;;10.50;99.90;;;;;;5024120;28;20511;-70
2022/05/07 05:19:49;;;;;;;7.03;5.13;;;10.60;99.90;;;;;;5031301;28;20523;-70
2022/05/07 05:22:16;;;;;;;6.00;4.60;;;10.70;99.90;;;;;;5031604;28;21325;-70
2022/05/07 05:24:42;;;;;;;6.80;5.87;;;10.80;99.90;;;;;;5018295;28;20461;-70
2022/05/07 05:27:09;;;;;;;5.90;4.90;;;10.90;99.90;;;;;;5028672;28;20457;-70
2022/05/07 05:29:36;;;;;;;9.53;5.93;;;11.00;99.90;;;;;;5030137;28;20442;-70
2022/05/07 05:32:02;;;;;;;7.30;5.63;;;11.10;99.90;;;;;;5030023;28;20529;-70
2022/05/07 05:34:30;;;;;;;6.60;5.77;;;11.20;99.90;;;;;;5018078;28;20445;-70
2022/05/07 05:36:57;;;;;;;8.80;5.80;;;11.30;99.90;;;;;;5035449;28;20456;-70
2022/05/07 05:39:24;;;;;;;14.50;5.83;;;11.40;99.90;;;;;;5032352;28;21052;-70
2022/05/07 05:41:50;;;;;;;7.63;5.70;;;11.50;99.90;;;;;;5024446;28;20528;-70
2022/05/07 05:44:17;;;;;;;7.90;5.73;;;11.70;99.90;;;;;;5022809;28;20490;-70
2022/05/07 05:46:44;;;;;;;14.27;6.40;;;11.70;99.90;;;;;;5032973;28;20838;-71
2022/05/07 05:49:11;;;;;;;8.73;5.93;;;11.70;99.90;;;;;;5034521;28;20447;-70
2022/05/07 05:51:39;;;;;;;9.87;6.30;;;11.70;99.90;;;;;;5023074;28;20552;-70
2022/05/07 05:54:06;;;;;;;6.97;5.63;;;11.70;99.90;;;;;;5017653;28;21154;-70
2022/05/07 05:56:32;;;;;;;7.43;5.37;;;11.80;99.90;;;;;;5035846;28;20884;-70
2022/05/07 05:58:59;;;;;;;6.40;5.30;;;11.80;99.90;;;;;;5030953;28;20799;-70
2022/05/07 06:01:26;;;;;;;7.60;6.03;;;11.80;99.90;;;;;;5021517;28;20474;-70
2022/05/07 06:03:52;;;;;;;7.40;5.53;;;11.90;99.90;;;;;;5039216;28;20487;-70
2022/05/07 06:06:19;;;;;;;7.10;6.40;;;12.00;99.90;;;;;;5020390;28;21029;-70
2022/05/07 06:08:47;;;;;;;7.30;5.93;;;12.10;99.90;;;;;;5026068;28;20598;-70
2022/05/07 06:11:14;;;;;;;16.90;6.27;;;12.20;99.90;;;;;;5028139;28;20555;-70
2022/05/07 06:13:43;;;;;;;10.03;6.00;;;12.30;99.90;;;;;;5019051;28;21024;-70
2022/05/07 06:16:09;;;;;;;7.40;6.10;;;12.60;99.90;;;;;;5016988;28;20454;-70
2022/05/07 06:18:36;;;;;;;13.03;6.30;;;12.90;99.90;;;;;;5023600;28;20458;-70
2022/05/07 06:21:03;;;;;;;9.77;5.80;;;13.20;99.90;;;;;;5030277;28;20530;-70
2022/05/07 06:23:30;;;;;;;14.10;6.40;;;13.40;99.90;;;;;;5033450;28;20895;-71
2022/05/07 06:28:42;;;;;;;7.27;6.37;;;13.70;99.90;;;;;;5028126;28;20449;-72
2022/05/07 06:31:10;;;;;;;9.17;6.43;;;13.80;99.90;;;;;;5025665;28;20488;-72
2022/05/07 06:33:38;;;;;;;9.23;5.80;;;14.00;99.90;;;;;;5017006;28;20453;-72
2022/05/07 06:36:06;;;;;;;10.83;5.60;;;14.20;99.90;;;;;;5028171;28;20883;-72
2022/05/07 06:38:32;;;;;;;11.40;5.70;;;14.50;99.90;;;;;;5021983;28;20997;-72
2022/05/07 06:41:02;;;;;;;9.37;5.50;;;14.80;99.90;;;;;;5015397;28;20994;-72
2022/05/07 06:43:29;;;;;;;11.97;5.50;;;15.10;99.90;;;;;;5022443;28;20539;-72
2022/05/07 06:45:56;;;;;;;7.47;5.20;;;15.40;99.90;;;;;;5031237;28;20796;-72
2022/05/07 06:48:23;;;;;;;5.50;5.00;;;15.60;99.90;;;;;;5024843;28;20791;-72
2022/05/07 06:50:50;;;;;;;5.97;5.07;;;15.80;99.90;;;;;;5030103;28;20465;-72
2022/05/07 06:53:17;;;;;;;6.03;4.20;;;16.00;99.90;;;;;;5031727;28;20560;-72
2022/05/07 06:55:56;;;;;;;6.47;4.70;;;16.20;99.90;;;;;;5032754;28;20976;-72
2022/05/07 06:58:25;;;;;;;5.60;4.70;;;16.30;99.90;;;;;;5019460;28;20458;-72
2022/05/07 07:00:52;;;;;;;7.60;4.50;;;16.50;99.90;;;;;;5027166;28;20757;-72
2022/05/07 07:03:19;;;;;;;9.17;4.93;;;16.70;99.90;;;;;;5029749;28;20470;-72
2022/05/07 07:05:47;;;;;;;4.83;4.33;;;16.80;99.90;;;;;;5018354;28;20459;-72
2022/05/07 07:08:14;;;;;;;12.40;4.37;;;16.90;99.90;;;;;;5026320;28;20423;-72
2022/05/07 07:10:40;;;;;;;6.17;4.70;;;17.20;99.90;;;;;;5038929;28;20519;-72
2022/05/07 07:13:07;;;;;;;6.87;4.63;;;17.40;99.90;;;;;;5023997;28;20548;-72
2022/05/07 07:15:39;;;;;;;5.20;4.40;;;17.50;99.90;;;;;;5019286;28;20790;-72
2022/05/07 07:18:09;;;;;;;5.63;4.40;;;17.70;99.90;;;;;;5019638;28;20476;-72
2022/05/07 07:20:37;;;;;;;8.00;4.17;;;18.00;99.90;;;;;;5025575;28;20474;-72
2022/05/07 07:23:04;;;;;;;7.80;4.30;;;18.10;99.90;;;;;;5025322;28;20432;-72
2022/05/07 07:25:31;;;;;;;4.40;4.10;;;18.00;99.90;;;;;;5021222;28;20541;-72
2022/05/07 07:27:58;;;;;;;8.03;4.30;;;18.00;99.90;;;;;;5027285;28;20507;-72
2022/05/07 07:30:24;;;;;;;10.03;4.50;;;18.20;99.90;;;;;;5016430;28;20477;-72
2022/05/07 07:32:52;;;;;;;6.20;4.10;;;18.40;99.90;;;;;;5018945;28;20490;-72
2022/05/07 07:35:19;;;;;;;8.27;5.10;;;18.60;99.90;;;;;;5018055;28;20453;-74
2022/05/07 07:37:46;;;;;;;9.20;5.60;;;18.80;99.90;;;;;;5032219;28;20502;-73
2022/05/07 07:40:13;;;;;;;8.53;5.00;;;19.10;99.90;;;;;;5023321;28;20545;-73
2022/05/07 07:42:40;;;;;;;6.10;5.00;;;19.10;99.90;;;;;;5029279;28;21016;-73
2022/05/07 07:48:03;;;;;;;7.20;5.07;;;19.10;99.90;;;;;;5019325;28;20449;-72
2022/05/07 07:50:32;;;;;;;5.90;5.20;;;19.00;99.90;;;;;;5011586;28;20560;-72
2022/05/07 07:53:00;;;;;;;7.13;5.30;;;19.10;99.90;;;;;;5024106;28;20457;-72
2022/05/07 07:55:27;;;;;;;7.10;5.40;;;19.10;99.90;;;;;;5019050;28;21054;-71
2022/05/07 07:57:55;;;;;;;5.60;4.67;;;19.20;99.90;;;;;;5022188;28;20453;-72
2022/05/07 08:00:22;;;;;;;7.83;4.97;;;19.20;99.90;;;;;;5021478;28;20610;-72
2022/05/07 08:02:50;;;;;;;10.50;4.90;;;19.20;99.90;;;;;;5022323;28;20428;-72
2022/05/07 08:05:22;;;;;;;6.10;4.70;;;19.30;99.90;;;;;;5026053;28;20496;-76
2022/05/07 08:13:17;;;;;;;5.57;4.87;;;19.50;99.90;;;;;;5025405;28;20476;-76
2022/05/07 08:15:44;;;;;;;4.70;3.90;;;19.80;99.90;;;;;;5027097;28;20464;-76
2022/05/07 08:18:10;;;;;;;8.93;3.80;;;20.00;99.90;;;;;;5014335;28;20458;-76
2022/05/07 08:20:38;;;;;;;5.03;4.53;;;20.20;99.90;;;;;;5030703;28;20473;-76
2022/05/07 08:23:05;;;;;;;5.00;4.30;;;20.50;99.90;;;;;;5023464;28;20512;-76
2022/05/07 08:25:32;;;;;;;4.20;3.03;;;20.90;99.90;;;;;;5017840;28;20494;-76
2022/05/07 08:27:58;;;;;;;6.53;3.40;;;21.00;99.90;;;;;;5028650;28;20507;-76
2022/05/07 08:30:25;;;;;;;4.30;3.90;;;21.40;99.90;;;;;;5023227;28;20474;-76
2022/05/07 08:32:52;;;;;;;4.77;3.87;;;21.80;99.90;;;;;;5020019;28;20445;-76
2022/05/07 08:35:19;;;;;;;6.50;4.00;;;22.20;99.90;;;;;;5023091;28;20445;-77
2022/05/07 08:37:47;;;;;;;4.13;3.30;;;22.10;99.90;;;;;;5022201;28;20951;-76
2022/05/07 08:40:16;;;;;;;4.20;3.80;;;22.00;99.90;;;;;;5025017;28;20450;-76
2022/05/07 08:42:43;;;;;;;5.90;4.20;;;22.20;99.90;;;;;;5014209;28;20489;-76
2022/05/07 08:45:11;;;;;;;9.77;4.30;;;22.60;99.90;;;;;;5019300;28;21013;-76
2022/05/07 08:47:38;;;;;;;4.00;3.70;;;22.80;99.90;;;;;;5023414;28;20457;-76
2022/05/07 08:50:07;;;;;;;5.43;3.80;;;22.70;99.90;;;;;;5027403;28;20453;-77
2022/05/07 08:52:34;;;;;;;3.77;3.40;;;22.50;99.90;;;;;;5024712;28;20461;-77
2022/05/07 08:55:02;;;;;;;6.40;3.90;;;22.30;99.90;;;;;;5019891;28;20446;-77
2022/05/07 08:57:30;;;;;;;10.53;3.53;;;22.60;99.90;;;;;;5018145;28;20461;-77
2022/05/07 08:59:57;;;;;;;7.97;3.20;;;22.90;99.90;;;;;;5016793;28;20516;-76
2022/05/07 09:02:24;;;;;;;3.63;3.30;;;23.20;99.90;;;;;;5022492;28;20445;-77
2022/05/07 09:04:58;;;;;;;5.50;3.40;;;23.30;99.90;;;;;;5016922;28;20537;-77
2022/05/07 09:07:25;;;;;;;3.50;3.20;;;23.10;99.90;;;;;;5014084;28;20458;-76
2022/05/07 09:09:52;;;;;;;3.50;3.20;;;23.30;99.90;;;;;;5022233;28;20532;-76
2022/05/07 09:12:28;;;;;;;4.10;3.70;;;23.30;99.90;;;;;;5022493;28;20478;-76
2022/05/07 09:14:56;;;;;;;4.80;3.80;;;23.20;99.90;;;;;;5011575;28;20442;-76
2022/05/07 09:17:23;;;;;;;3.80;3.23;;;23.10;99.90;;;;;;5029101;28;21023;-77
2022/05/07 09:19:49;;;;;;;4.60;3.37;;;23.00;99.90;;;;;;5031048;28;20440;-77
2022/05/07 09:22:16;;;;;;;3.33;2.70;;;23.20;99.90;;;;;;5035480;28;20478;-77
2022/05/07 09:24:53;;;;;;;2.90;2.70;;;23.00;99.90;;;;;;5023042;28;20493;-75
2022/05/07 09:27:20;;;;;;;5.00;2.47;;;23.30;99.90;;;;;;5024946;28;20998;-76
2022/05/07 09:29:59;;;;;;;7.00;2.27;;;23.20;99.90;;;;;;5020293;28;20958;-76
2022/05/07 09:32:35;;;;;;;1.83;1.73;;;23.30;99.90;;;;;;5020286;28;20500;-76
2022/05/07 09:37:46;;;;;;;3.40;2.00;;;23.30;99.90;;;;;;5018579;28;20495;-77
2022/05/07 09:40:13;;;;;;;4.43;3.00;;;23.60;99.90;;;;;;5022138;28;20452;-77
2022/05/07 09:42:40;;;;;;;9.30;3.30;;;23.80;99.90;;;;;;5025950;28;20450;-76
2022/05/07 09:45:09;;;;;;;3.53;2.33;;;24.00;99.90;;;;;;5032840;28;20496;-76
2022/05/07 09:47:37;;;;;;;3.87;2.43;;;23.70;99.90;;;;;;5017178;28;21004;-77
2022/05/07 09:50:24;;;;;;;5.80;2.60;;;23.60;99.90;;;;;;5017976;28;20450;-77
2022/05/07 09:58:21;;;;;;;4.63;2.63;;;24.60;99.90;;;;;;5028150;28;20445;-72
2022/05/07 10:01:32;;;;;;;5.10;2.53;;;24.90;99.90;;;;;;5027245;28;20473;-72
2022/05/07 10:04:40;;;;;;;7.03;2.77;;;25.20;99.90;;;;;;5027429;28;20488;-71
2022/05/07 10:07:26;;;;;;;2.50;2.30;;;25.50;99.90;;;;;;5027550;28;20512;-72
2022/05/07 10:10:04;;;;;;;3.30;2.60;;;25.50;99.50;;;;;;5014011;28;20505;-72
2022/05/07 10:12:32;;;;;;;6.85;3.10;;;25.10;99.90;;;;;;5013360;28;20462;-72
2022/05/07 10:15:06;;;;;;;9.30;3.37;;;24.90;97.00;;;;;;5013081;28;20200;-72
2022/05/07 10:17:35;;;;;;;8.50;2.90;;;24.80;99.70;;;;;;5018464;28;20951;-72
2022/05/07 10:20:06;;;;;;;4.10;2.70;;;25.20;99.20;;;;;;5025314;28;20485;-73
2022/05/07 10:22:33;;;;;;;4.97;3.07;;;25.60;98.20;;;;;;5033557;28;20532;-73
2022/05/07 10:25:06;;;;;;;3.10;2.83;;;25.70;96.60;;;;;;5032758;28;20542;-72
2022/05/07 10:27:34;;;;;;;5.13;2.73;;;25.70;98.30;;;;;;5029782;28;20478;-73
2022/05/07 10:30:06;;;;;;;6.20;2.80;;;25.50;95.60;;;;;;5018547;28;20457;-73
2022/05/07 10:32:55;;;;;;;4.83;2.97;;;25.80;97.50;;;;;;5031503;28;20455;-73
2022/05/07 10:35:41;;;;;;;2.63;2.43;;;25.70;96.80;;;;;;5016766;28;20453;-73
2022/05/07 10:38:08;;;;;;;2.70;2.30;;;25.90;96.30;;;;;;5013483;28;21035;-72
2022/05/07 10:40:35;;;;;;;3.80;3.00;;;26.00;96.10;;;;;;5013839;28;21044;-72
2022/05/07 10:43:02;;;;;;;9.33;3.47;;;26.20;96.00;;;;;;5032773;28;20870;-71
2022/05/07 10:45:40;;;;;;;4.83;2.67;;;26.40;95.00;;;;;;5023530;28;20486;-72
2022/05/07 10:48:17;;;;;;;3.73;3.23;;;26.00;95.00;;;;;;5023169;28;20536;-72
2022/05/07 10:50:51;;;;;;;3.90;3.43;;;25.60;94.60;;;;;;5023391;28;20481;-71
2022/05/07 10:53:18;;;;;;;5.10;4.37;;;25.20;94.50;;;;;;5024002;28;20815;-72
2022/05/07 10:55:44;;;;;;;11.13;3.27;;;24.90;94.10;;;;;;5023733;28;20454;-72
2022/05/07 10:58:11;;;;;;;7.17;3.63;;;24.80;94.70;;;;;;5019520;28;20458;-72
2022/05/07 11:00:38;;;;;;;3.70;3.40;;;24.80;94.60;;;;;;5021461;28;20527;-72
2022/05/07 11:03:05;;;;;;;7.70;3.00;;;24.80;94.20;;;;;;5026098;28;20444;-73
2022/05/07 11:05:34;;;;;;;4.90;4.10;;;25.00;95.40;;;;;;5030758;28;20481;-72
2022/05/07 11:08:03;;;;;;;9.97;3.30;;;25.10;93.10;;;;;;5031982;28;20446;-72
2022/05/07 11:10:30;;;;;;;3.73;3.07;;;25.20;93.80;;;;;;5024612;28;20470;-72
2022/05/07 11:13:05;;;;;;;6.70;3.47;;;25.50;94.80;;;;;;5027771;28;20969;-72
2022/05/07 11:15:32;;;;;;;4.97;3.47;;;25.90;95.80;;;;;;5023652;28;20503;-72
2022/05/07 11:17:59;;;;;;;5.97;3.47;;;26.20;92.40;;;;;;5023131;28;20211;-73
2022/05/07 11:20:31;;;;;;;7.90;4.10;;;26.40;92.60;;;;;;5014452;28;20470;-72
2022/05/07 11:23:03;;;;;;;9.03;4.00;;;26.70;93.80;;;;;;5025711;28;20452;-73
2022/05/07 11:25:30;;;;;;;5.30;3.33;;;26.70;92.00;;;;;;5029684;28;20481;-73
2022/05/07 11:27:59;;;;;;;4.70;4.13;;;26.80;93.00;;;;;;5033851;28;20457;-72
2022/05/07 11:30:25;;;;;;;7.03;4.20;;;27.00;91.30;;;;;;5022173;28;20484;-73
2022/05/07 11:32:54;;;;;;;6.10;4.13;;;26.80;90.80;;;;;;5023381;28;20447;-72
2022/05/07 11:35:25;;;;;;;5.43;4.40;;;27.00;90.90;;;;;;5023301;28;20198;-73
2022/05/07 11:37:51;;;;;;;4.90;4.50;;;27.00;91.10;;;;;;5016807;28;20455;-72
2022/05/07 11:40:29;;;;;;;5.60;5.00;;;26.90;89.80;;;;;;5036151;28;20453;-72
2022/05/07 11:45:37;;;;;;;5.53;5.03;;;26.60;91.20;;;;;;5029808;28;20478;-73
2022/05/07 11:48:09;;;;;;;6.20;4.80;;;26.70;91.80;;;;;;5026949;28;20482;-73
2022/05/07 11:50:40;;;;;;;5.10;4.60;;;26.80;91.10;;;;;;5027800;28;20482;-74
2022/05/07 11:53:11;;;;;;;4.23;3.93;;;27.10;91.50;;;;;;5014171;28;20458;-73
2022/05/07 11:55:40;;;;;;;5.33;4.27;;;27.30;89.30;;;;;;5033820;28;20457;-72
2022/05/07 11:58:14;;;;;;;5.37;4.33;;;27.30;90.70;;;;;;5033608;28;20451;-72
2022/05/07 12:00:42;;;;;;;4.73;4.13;;;27.10;91.20;;;;;;5036334;28;20484;-73
2022/05/07 12:03:09;;;;;;;7.90;4.40;;;26.80;87.70;;;;;;5026569;28;20798;-73
2022/05/07 12:05:40;;;;;;;8.40;3.73;;;26.80;87.80;;;;;;5014799;28;20565;-73
2022/05/07 12:08:13;;;;;;;3.90;3.50;;;26.50;89.80;;;;;;5013179;28;20516;-73
2022/05/07 12:10:42;;;;;;;5.97;3.90;;;26.70;88.20;;;;;;5020966;28;21060;-73
2022/05/07 12:13:09;;;;;;;6.43;3.83;;;26.50;87.30;;;;;;5033184;28;20519;-73
2022/05/07 12:18:21;;;;;;;4.10;3.80;;;26.20;90.70;;;;;;5012687;28;20445;-73
2022/05/07 12:20:48;;;;;;;5.50;4.27;;;26.50;88.80;;;;;;5016252;28;20486;-73
2022/05/07 12:31:44;;;;;;;4.77;4.27;;;27.10;89.80;;;;;;5014444;28;20508;-77
2022/05/07 12:34:11;;;;;;;12.90;3.80;;;27.30;89.20;;;;;;5015644;28;20531;-76
2022/05/07 12:36:38;;;;;;;5.00;4.03;;;27.60;91.80;;;;;;5024404;28;21015;-77
2022/05/07 12:39:04;;;;;;;9.87;3.50;;;28.00;90.40;;;;;;5023239;28;20454;-77
2022/05/07 12:41:32;;;;;;;4.57;3.13;;;28.60;88.40;;;;;;5017258;28;20475;-75
2022/05/07 12:44:00;;;;;;;4.60;3.70;;;28.90;87.50;;;;;;5026614;28;20500;-74
2022/05/07 12:46:27;;;;;;;5.50;3.60;;;28.70;82.90;;;;;;5016014;28;21077;-74
2022/05/07 12:48:55;;;;;;;4.37;3.70;;;28.20;84.70;;;;;;5015322;28;20447;-74
2022/05/07 12:51:22;;;;;;;6.50;3.87;;;28.10;82.30;;;;;;5014709;28;20470;-75
2022/05/07 12:53:49;;;;;;;6.07;4.40;;;27.40;84.10;;;;;;5021978;28;20514;-75
2022/05/07 12:56:16;;;;;;;4.90;4.50;;;27.10;84.20;;;;;;5032131;28;20441;-75
2022/05/07 12:58:44;;;;;;;4.20;3.60;;;27.10;84.70;;;;;;5021134;28;20458;-76
2022/05/07 13:01:12;;;;;;;5.43;3.40;;;26.90;86.40;;;;;;5031284;28;21392;-77
2022/05/07 13:03:39;;;;;;;5.77;3.60;;;27.20;86.70;;;;;;5027076;28;20830;-76
2022/05/07 13:06:05;;;;;;;4.23;2.90;;;27.00;85.20;;;;;;5028240;28;20531;-75
2022/05/07 13:08:32;;;;;;;3.93;3.60;;;26.90;83.70;;;;;;5026710;28;21019;-75
2022/05/07 13:10:59;;;;;;;4.27;3.80;;;26.60;84.40;;;;;;5026568;28;20531;-75
2022/05/07 13:13:26;;;;;;;11.30;3.60;;;26.20;83.60;;;;;;5013592;28;20950;-75
2022/05/07 13:15:54;;;;;;;3.93;3.40;;;26.00;84.80;;;;;;5012814;28;20458;-75
2022/05/07 13:18:21;;;;;;;4.87;3.27;;;26.00;88.20;;;;;;5025433;28;20876;-76
2022/05/07 13:20:48;;;;;;;7.70;3.53;;;26.00;86.90;;;;;;5016993;28;20474;-75
2022/05/07 13:23:15;;;;;;;5.30;3.60;;;26.10;87.30;;;;;;5020978;28;20445;-73
2022/05/07 13:25:42;;;;;;;5.10;3.30;;;25.70;87.50;;;;;;5027029;28;20477;-74
2022/05/07 13:28:09;;;;;;;4.50;2.93;;;25.60;88.90;;;;;;5026686;28;20445;-72
2022/05/07 13:30:36;;;;;;;5.10;4.07;;;25.70;89.30;;;;;;5029056;28;20473;-75
2022/05/07 13:33:04;;;;;;;3.73;3.20;;;25.70;91.20;;;;;;5016306;28;20524;-75
2022/05/07 13:35:31;;;;;;;9.57;6.67;;;25.70;89.70;;;;;;5025468;28;20822;-75